Time;durP1;ratioP1;P1;durP2;ratioP2;P2;SDS_P1;SDS_P2;PMS_P1;PMS_P2;Temp;Humidity;BMP_temperature;BMP_pressure;BME280_temperature;BME280_humidity;BME280_pressure;Samples;Min_cycle;Max_cycle;Signal;HPM_P1;HPM_P2
2022/09/04 00:01:16;;;;;;;;;;;;;;;15.36;83.57;98015.06;5016537;28;19981;-88
2022/09/04 00:06:50;;;;;;;;;;;;;;;15.35;83.72;98018.94;5004768;28;19956;-89
2022/09/04 00:09:47;;;;;;;;;;;;;;;15.43;83.54;98020.78;5005209;28;19926;-88
2022/09/04 00:12:15;;;;;;;;;;;;;;;15.43;83.18;98026.25;5004531;28;19930;-88
2022/09/04 00:14:45;;;;;;;;;;;;;;;15.38;83.19;98022.94;5000180;28;19937;-85
2022/09/04 00:17:19;;;;;;;;;;;;;;;15.33;83.25;98017.66;5007758;28;19926;-87
2022/09/04 00:19:48;;;;;;;;;;;;;;;15.39;82.78;98021.78;5011980;28;20439;-86
2022/09/04 00:22:20;;;;;;;;;;;;;;;15.30;82.99;98026.59;5008765;28;19925;-88
2022/09/04 00:24:49;;;;;;;;;;;;;;;15.34;82.75;98022.84;5003883;28;19953;-87
2022/09/04 00:27:44;;;;;;;;;;;;;;;15.38;82.76;98028.41;5000755;28;19972;-89
2022/09/04 00:30:15;;;;;;;;;;;;;;;15.39;82.53;98030.81;5006546;28;19941;-89
2022/09/04 00:32:47;;;;;;;;;;;;;;;15.40;82.37;98026.94;5003512;28;19930;-90
2022/09/04 00:35:17;;;;;;;;;;;;;;;15.18;82.80;98039.09;5012105;28;19960;-90
2022/09/04 00:37:46;;;;;;;;;;;;;;;15.10;82.61;98036.44;5001933;28;19925;-89
2022/09/04 00:40:17;;;;;;;;;;;;;;;14.82;84.55;98030.78;5017896;28;20308;-89
2022/09/04 00:43:01;;;;;;;;;;;;;;;15.00;83.67;98034.94;5004775;28;20376;-89
2022/09/04 00:52:22;;;;;;;;;;;;;;;15.08;82.88;98055.94;4994420;28;19926;-91
2022/09/04 00:55:07;;;;;;;;;;;;;;;14.83;83.38;98057.78;5004635;28;19930;-89
2022/09/04 00:58:00;;;;;;;;;;;;;;;14.84;84.02;98059.38;5010491;28;20411;-90
2022/09/04 01:00:29;;;;;;;;;;;;;;;14.86;83.41;98067.22;5000910;28;19921;-91
2022/09/04 01:03:14;;;;;;;;;;;;;;;14.85;83.69;98060.16;5002804;28;20361;-91
2022/09/04 01:05:51;;;;;;;;;;;;;;;14.79;83.93;98067.78;5004105;28;19921;-90
2022/09/04 01:08:23;;;;;;;;;;;;;;;14.97;83.18;98065.72;5001662;28;19928;-91
2022/09/04 01:10:55;;;;;;;;;;;;;;;14.96;82.88;98071.50;5007702;28;19936;-92
2022/09/04 01:16:20;;;;;;;;;;;;;;;15.09;82.44;98070.41;5009334;28;19922;-91
2022/09/04 01:18:50;;;;;;;;;;;;;;;15.04;82.14;98076.91;5014564;28;19972;-91
2022/09/04 01:21:43;;;;;;;;;;;;;;;14.83;82.57;98079.66;5006680;28;20427;-91
2022/09/04 01:24:26;;;;;;;;;;;;;;;14.90;82.34;98074.44;5010033;28;20345;-91
2022/09/04 01:27:24;;;;;;;;;;;;;;;14.85;82.68;98074.66;5007308;28;19921;-89
2022/09/04 01:29:54;;;;;;;;;;;;;;;14.94;82.13;98083.59;5009129;28;19925;-89
2022/09/04 01:32:51;;;;;;;;;;;;;;;14.85;82.20;98074.66;5007400;28;19929;-92
2022/09/04 01:35:22;;;;;;;;;;;;;;;14.79;82.59;98080.66;5015970;28;19929;-91
2022/09/04 01:37:52;;;;;;;;;;;;;;;14.89;82.13;98077.53;5006267;28;19921;-91
2022/09/04 01:40:27;;;;;;;;;;;;;;;14.94;81.91;98085.53;5009619;28;19976;-91
2022/09/04 01:43:06;;;;;;;;;;;;;;;14.91;81.73;98084.28;5001266;28;19925;-88
2022/09/04 01:45:38;;;;;;;;;;;;;;;14.77;82.21;98083.75;5010122;28;20376;-91
2022/09/04 01:48:09;;;;;;;;;;;;;;;14.77;81.79;98085.69;5011436;28;19957;-88
2022/09/04 01:50:37;;;;;;;;;;;;;;;14.68;82.12;98083.78;5012872;28;19928;-87
2022/09/04 01:53:07;;;;;;;;;;;;;;;14.54;82.47;98083.28;4998690;28;19929;-91
2022/09/04 01:55:36;;;;;;;;;;;;;;;14.53;83.10;98087.13;5008588;28;19922;-93
2022/09/04 01:58:09;;;;;;;;;;;;;;;14.66;82.39;98088.81;5014365;28;19926;-91
2022/09/04 02:00:39;;;;;;;;;;;;;;;14.60;82.68;98089.34;5007101;28;19921;-90
2022/09/04 02:03:10;;;;;;;;;;;;;;;14.66;81.94;98085.28;5004883;28;19929;-89
2022/09/04 02:06:01;;;;;;;;;;;;;;;14.62;81.85;98092.53;5001980;28;19921;-92
2022/09/04 02:08:54;;;;;;;;;;;;;;;14.65;81.70;98089.16;5011717;28;19922;-91
2022/09/04 02:11:29;;;;;;;;;;;;;;;14.55;82.11;98087.59;5018792;28;20272;-91
2022/09/04 02:14:26;;;;;;;;;;;;;;;14.51;82.17;98083.13;5013027;28;19921;-91
2022/09/04 02:17:21;;;;;;;;;;;;;;;14.54;82.35;98083.28;5011375;28;19922;-92
2022/09/04 02:22:51;;;;;;;;;;;;;;;14.54;81.61;98082.44;5007037;28;19921;-91
2022/09/04 02:25:32;;;;;;;;;;;;;;;14.50;81.73;98082.34;5021102;28;19921;-91
2022/09/04 02:28:14;;;;;;;;;;;;;;;14.50;81.87;98078.81;5002820;28;19952;-90
2022/09/04 02:30:46;;;;;;;;;;;;;;;14.52;81.96;98085.53;5013840;28;19971;-91
2022/09/04 02:33:18;;;;;;;;;;;;;;;14.44;82.24;98085.56;5013736;28;19922;-90
2022/09/04 02:35:47;;;;;;;;;;;;;;;14.14;82.95;98085.59;5008468;28;19971;-89
2022/09/04 02:38:18;;;;;;;;;;;;;;;14.35;82.44;98093.81;5013060;28;19921;-90
2022/09/04 02:40:51;;;;;;;;;;;;;;;14.37;81.72;98088.81;5012881;28;20447;-90
2022/09/04 02:43:34;;;;;;;;;;;;;;;14.37;81.69;98092.34;5005142;28;20400;-87
2022/09/04 02:46:04;;;;;;;;;;;;;;;14.08;83.18;98097.84;5001777;28;19932;-88
2022/09/04 02:48:34;;;;;;;;;;;;;;;14.02;83.18;98093.69;5006981;28;19981;-88
2022/09/04 02:51:12;;;;;;;;;;;;;;;14.02;83.23;98088.22;5015000;28;19922;-90
2022/09/04 02:53:42;;;;;;;;;;;;;;;14.12;82.85;98090.59;5001825;28;19928;-88
2022/09/04 02:56:21;;;;;;;;;;;;;;;14.24;82.42;98090.69;5005386;28;20273;-89
2022/09/04 02:58:59;;;;;;;;;;;;;;;14.17;82.56;98090.41;5006118;28;19925;-87
2022/09/04 03:01:41;;;;;;;;;;;;;;;13.89;83.74;98082.66;5006891;28;19922;-89
2022/09/04 03:04:16;;;;;;;;;;;;;;;14.08;83.06;98087.72;5010046;28;20367;-89
2022/09/04 03:06:55;;;;;;;;;;;;;;;14.01;83.39;98092.91;5011452;28;19925;-91
2022/09/04 03:09:28;;;;;;;;;;;;;;;14.02;83.15;98094.50;5003714;28;20368;-90
2022/09/04 03:11:58;;;;;;;;;;;;;;;13.92;83.69;98092.13;5005078;28;19922;-86
2022/09/04 03:14:33;;;;;;;;;;;;;;;14.02;83.12;98101.91;5010641;28;19925;-90
2022/09/04 03:17:05;;;;;;;;;;;;;;;14.09;82.71;98097.50;5015257;28;19957;-90
2022/09/04 03:19:35;;;;;;;;;;;;;;;14.14;82.30;98097.31;5005519;28;19921;-90
2022/09/04 03:22:04;;;;;;;;;;;;;;;14.14;82.09;98096.50;5003278;28;19921;-88
2022/09/04 03:24:33;;;;;;;;;;;;;;;13.96;82.88;98101.28;5008474;28;19922;-90
2022/09/04 03:27:01;;;;;;;;;;;;;;;13.75;83.46;98103.13;5012839;28;19921;-90
2022/09/04 03:29:31;;;;;;;;;;;;;;;13.59;84.16;98100.13;5009545;28;19928;-92
2022/09/04 03:32:07;;;;;;;;;;;;;;;13.76;83.77;98099.28;5006243;28;20383;-92
2022/09/04 03:37:44;;;;;;;;;;;;;;;13.85;82.83;98106.31;5007352;28;20319;-91
2022/09/04 03:40:18;;;;;;;;;;;;;;;13.82;83.23;98103.41;5006971;28;20320;-91
2022/09/04 03:42:50;;;;;;;;;;;;;;;13.75;82.80;98101.19;5003747;28;19925;-91
2022/09/04 03:45:20;;;;;;;;;;;;;;;13.82;82.41;98106.16;4996375;28;19921;-89
2022/09/04 03:47:54;;;;;;;;;;;;;;;13.88;82.15;98093.91;5001734;28;19922;-90
2022/09/04 03:50:24;;;;;;;;;;;;;;;13.65;83.30;98096.09;5009407;28;19992;-89
2022/09/04 03:52:55;;;;;;;;;;;;;;;13.78;82.72;98105.19;5009131;28;19929;-87
2022/09/04 03:58:20;;;;;;;;;;;;;;;13.77;82.49;98119.97;5000549;28;19927;-90
2022/09/04 04:00:55;;;;;;;;;;;;;;;13.76;82.57;98123.84;4994120;28;20300;-90
2022/09/04 04:03:33;;;;;;;;;;;;;;;13.81;82.77;98129.94;4995404;28;19964;-88
2022/09/04 04:06:05;;;;;;;;;;;;;;;13.82;82.52;98128.78;5012525;28;19921;-91
2022/09/04 04:08:50;;;;;;;;;;;;;;;13.54;83.74;98130.34;5003250;28;19968;-91
2022/09/04 04:11:23;;;;;;;;;;;;;;;13.64;83.64;98132.72;5004043;28;19921;-91
2022/09/04 04:14:41;;;;;;;;;;;;;;;13.61;83.05;98134.16;5011802;28;19921;-92
2022/09/04 04:17:52;;;;;;;;;;;;;;;13.71;82.68;98134.94;4931586;29;19929;-92
2022/09/04 04:20:39;;;;;;;;;;;;;;;13.77;82.56;98147.28;4997162;28;20032;-92
2022/09/04 04:23:32;;;;;;;;;;;;;;;13.82;82.19;98138.91;5002303;28;19921;-87
2022/09/04 04:26:29;;;;;;;;;;;;;;;13.83;81.66;98137.78;5001871;28;20407;-90
2022/09/04 04:29:02;;;;;;;;;;;;;;;13.81;82.27;98148.25;5017872;28;19930;-92
2022/09/04 04:31:40;;;;;;;;;;;;;;;13.82;82.03;98142.44;5011625;28;20364;-92
2022/09/04 04:34:09;;;;;;;;;;;;;;;13.84;81.97;98140.19;4993623;28;19929;-91
2022/09/04 04:36:44;;;;;;;;;;;;;;;13.86;81.45;98137.94;5008278;28;19921;-91
2022/09/04 04:39:18;;;;;;;;;;;;;;;13.92;81.64;98145.97;5012942;28;19949;-90
2022/09/04 04:42:04;;;;;;;;;;;;;;;13.88;81.80;98148.53;5002202;28;19921;-91
2022/09/04 04:47:26;;;;;;;;;;;;;;;13.88;81.43;98156.72;5004079;28;20011;-90
2022/09/04 04:49:57;;;;;;;;;;;;;;;13.73;82.34;98165.44;5004300;28;19922;-92
2022/09/04 04:52:31;;;;;;;;;;;;;;;13.83;81.88;98173.28;4998530;28;19922;-91
2022/09/04 04:55:07;;;;;;;;;;;;;;;13.89;81.63;98171.97;5005532;28;19951;-91
2022/09/04 04:57:48;;;;;;;;;;;;;;;13.73;82.07;98176.38;5002534;28;19930;-91
2022/09/04 05:00:20;;;;;;;;;;;;;;;13.83;82.11;98185.00;5010412;28;19925;-91
2022/09/04 05:03:00;;;;;;;;;;;;;;;13.93;81.67;98183.84;5006400;28;19959;-91
2022/09/04 05:05:45;;;;;;;;;;;;;;;13.86;82.48;98191.75;5009792;28;19932;-90
2022/09/04 05:08:18;;;;;;;;;;;;;;;13.94;81.70;98188.19;5012643;28;19929;-92
2022/09/04 05:10:47;;;;;;;;;;;;;;;13.72;82.93;98193.88;5005640;28;19926;-90
2022/09/04 05:13:40;;;;;;;;;;;;;;;13.68;83.38;98193.72;5004532;28;19921;-92
2022/09/04 05:16:18;;;;;;;;;;;;;;;13.71;83.19;98192.28;5009460;28;19957;-91
2022/09/04 05:18:49;;;;;;;;;;;;;;;13.85;82.68;98188.22;5012061;28;20393;-90
2022/09/04 05:21:19;;;;;;;;;;;;;;;13.88;82.07;98203.16;5012900;28;19927;-93
2022/09/04 05:23:51;;;;;;;;;;;;;;;13.77;82.51;98202.69;5009849;28;20383;-91
2022/09/04 05:26:21;;;;;;;;;;;;;;;13.75;83.00;98212.34;5013742;28;19930;-94
2022/09/04 05:28:51;;;;;;;;;;;;;;;13.75;82.69;98210.44;5002245;28;20020;-92
2022/09/04 05:31:20;;;;;;;;;;;;;;;13.82;83.11;98218.13;5006633;28;19932;-91
2022/09/04 05:33:50;;;;;;;;;;;;;;;13.87;82.66;98220.66;5007182;28;19957;-92
2022/09/04 05:36:20;;;;;;;;;;;;;;;13.89;82.52;98215.69;5013554;28;19929;-92
2022/09/04 05:38:55;;;;;;;;;;;;;;;13.92;82.53;98228.69;5009249;28;19925;-92
2022/09/04 05:41:28;;;;;;;;;;;;;;;14.10;81.99;98232.97;5013754;28;19952;-87
2022/09/04 05:44:01;;;;;;;;;;;;;;;14.11;81.93;98233.78;5007709;28;19992;-92
2022/09/04 05:46:57;;;;;;;;;;;;;;;14.18;81.75;98239.56;5010081;28;19922;-91
2022/09/04 05:49:28;;;;;;;;;;;;;;;14.08;82.35;98242.63;5010077;28;19964;-90
2022/09/04 05:52:07;;;;;;;;;;;;;;;14.17;82.00;98248.88;5021877;28;20013;-92
2022/09/04 05:55:00;;;;;;;;;;;;;;;14.18;82.14;98249.69;5009370;28;19980;-90
2022/09/04 05:57:33;;;;;;;;;;;;;;;14.19;82.15;98254.81;5014116;28;19929;-91
2022/09/04 06:00:07;;;;;;;;;;;;;;;14.21;81.99;98254.47;5008989;28;19921;-92
2022/09/04 06:02:52;;;;;;;;;;;;;;;14.19;82.00;98254.00;5007786;28;19928;-86
2022/09/04 06:05:30;;;;;;;;;;;;;;;14.26;81.63;98257.03;5007636;28;20013;-88
2022/09/04 06:08:01;;;;;;;;;;;;;;;14.30;81.56;98264.25;5025386;28;19926;-79
2022/09/04 06:10:31;;;;;;;;;;;;;;;14.34;81.47;98269.88;5007529;28;19929;-88
2022/09/04 06:13:20;;;;;;;;;;;;;;;14.41;81.15;98270.16;5021048;28;19931;-88
2022/09/04 06:15:53;;;;;;;;;;;;;;;14.39;81.19;98267.75;5001587;28;19926;-81
2022/09/04 06:18:29;;;;;;;;;;;;;;;14.47;81.18;98268.06;5013134;28;19972;-84
2022/09/04 06:21:13;;;;;;;;;;;;;;;14.46;81.14;98269.19;5006407;28;19921;-85
2022/09/04 06:23:46;;;;;;;;;;;;;;;14.57;80.84;98268.53;5022634;28;19922;-82
2022/09/04 06:26:15;;;;;;;;;;;;;;;14.62;80.82;98271.06;5008716;28;19921;-86
2022/09/04 06:28:54;;;;;;;;;;;;;;;14.52;80.98;98267.91;5009586;28;19929;-83
2022/09/04 06:31:33;;;;;;;;;;;;;;;14.71;80.72;98270.25;5007109;28;19922;-83
2022/09/04 06:34:03;;;;;;;;;;;;;;;14.82;80.34;98275.00;5006865;28;19949;-81
2022/09/04 06:39:47;;;;;;;;;;;;;;;15.02;79.94;98284.41;5007269;28;19922;-82
2022/09/04 06:42:23;;;;;;;;;;;;;;;15.01;80.46;98288.22;4992299;28;19973;-84
2022/09/04 06:44:56;;;;;;;;;;;;;;;14.95;80.87;98284.09;5008133;28;19949;-83
2022/09/04 06:47:27;;;;;;;;;;;;;;;15.13;80.27;98287.53;4993753;28;19972;-87
2022/09/04 06:49:59;;;;;;;;;;;;;;;15.26;79.97;98288.41;4989964;28;19921;-81
2022/09/04 06:52:29;;;;;;;;;;;;;;;15.37;79.71;98292.34;5018978;28;19922;-80
2022/09/04 06:55:00;;;;;;;;;;;;;;;15.50;79.62;98298.69;5001168;28;19945;-81
2022/09/04 06:57:37;;;;;;;;;;;;;;;15.44;79.82;98298.88;4999394;28;19964;-80
2022/09/04 07:00:06;;;;;;;;;;;;;;;15.57;79.49;98301.72;5005800;28;20036;-80
2022/09/04 07:02:49;;;;;;;;;;;;;;;15.65;78.95;98307.13;5002338;28;19933;-84
2022/09/04 07:05:20;;;;;;;;;;;;;;;15.75;78.47;98310.63;4987507;28;19972;-87
2022/09/04 07:07:51;;;;;;;;;;;;;;;15.80;78.95;98315.88;4993542;28;19932;-87
2022/09/04 07:10:20;;;;;;;;;;;;;;;15.90;78.43;98315.47;4991133;28;19965;-91
2022/09/04 07:13:13;;;;;;;;;;;;;;;16.04;78.02;98313.25;5003782;28;20317;-86
2022/09/04 07:15:43;;;;;;;;;;;;;;;16.28;77.40;98330.91;5001892;28;19925;-84
2022/09/04 07:18:16;;;;;;;;;;;;;;;16.31;77.48;98338.47;5000375;28;19922;-84
2022/09/04 07:20:49;;;;;;;;;;;;;;;16.33;77.57;98336.97;5005342;28;19921;-84
2022/09/04 07:23:22;;;;;;;;;;;;;;;16.41;77.22;98330.63;4998893;28;20300;-84
2022/09/04 07:29:06;;;;;;;;;;;;;;;16.47;76.92;98342.16;4999825;28;19926;-83
2022/09/04 07:31:35;;;;;;;;;;;;;;;16.43;76.76;98336.56;5000889;28;20376;-85
2022/09/04 07:34:08;;;;;;;;;;;;;;;16.36;76.99;98341.00;5005252;28;19970;-84
2022/09/04 07:36:38;;;;;;;;;;;;;;;16.36;77.32;98335.53;5000483;28;19972;-83
2022/09/04 07:39:08;;;;;;;;;;;;;;;16.45;77.90;98347.19;5008944;28;19973;-84
2022/09/04 07:41:41;;;;;;;;;;;;;;;16.55;77.47;98343.19;5000508;28;19922;-84
2022/09/04 07:44:37;;;;;;;;;;;;;;;16.62;77.05;98348.91;5002149;28;19926;-84
2022/09/04 07:47:33;;;;;;;;;;;;;;;16.67;76.92;98346.78;5005618;28;19921;-85
2022/09/04 07:50:07;;;;;;;;;;;;;;;16.63;76.86;98356.03;4995425;28;19922;-84
2022/09/04 07:52:51;;;;;;;;;;;;;;;16.82;76.58;98356.31;5009222;28;19948;-85
2022/09/04 07:55:47;;;;;;;;;;;;;;;16.89;75.86;98364.00;5007398;28;19922;-84
2022/09/04 07:58:20;;;;;;;;;;;;;;;16.99;75.95;98363.50;4996912;28;19928;-84
2022/09/04 08:00:54;;;;;;;;;;;;;;;17.06;75.89;98365.72;5003749;28;19926;-84
2022/09/04 08:03:25;;;;;;;;;;;;;;;17.13;75.75;98369.47;5002006;28;19928;-83
2022/09/04 08:05:54;;;;;;;;;;;;;;;17.15;75.13;98378.19;5007337;28;19929;-84
2022/09/04 08:08:33;;;;;;;;;;;;;;;17.32;75.37;98373.59;5004736;28;19927;-83
2022/09/04 08:11:06;;;;;;;;;;;;;;;17.18;75.47;98377.50;4994249;28;19928;-84
2022/09/04 08:13:44;;;;;;;;;;;;;;;17.39;74.68;98388.34;5009674;28;19922;-85
2022/09/04 08:16:16;;;;;;;;;;;;;;;17.50;74.18;98381.25;5004322;28;19925;-85
2022/09/04 08:19:02;;;;;;;;;;;;;;;17.38;75.79;98394.19;5004841;28;19936;-86
2022/09/04 08:21:58;;;;;;;;;;;;;;;17.84;74.69;98389.34;4998822;28;19922;-86
2022/09/04 08:24:52;;;;;;;;;;;;;;;18.11;73.26;98385.84;5004115;28;20381;-84
2022/09/04 08:27:32;;;;;;;;;;;;;;;18.27;72.86;98383.16;5005684;28;19945;-84
2022/09/04 08:30:25;;;;;;;;;;;;;;;18.30;72.48;98383.22;5004689;28;19925;-84
2022/09/04 08:33:00;;;;;;;;;;;;;;;18.41;72.20;98382.72;5018926;28;19953;-84
2022/09/04 08:35:29;;;;;;;;;;;;;;;18.62;70.78;98377.78;5007355;28;19949;-84
2022/09/04 08:38:09;;;;;;;;;;;;;;;18.47;71.77;98392.31;5025516;28;19921;-87
2022/09/04 08:40:45;;;;;;;;;;;;;;;18.23;72.25;98388.53;5011587;28;20432;-85
2022/09/04 08:43:22;;;;;;;;;;;;;;;18.02;73.01;98388.72;5007074;28;20008;-85
2022/09/04 08:46:05;;;;;;;;;;;;;;;18.31;72.55;98384.81;5027153;28;19932;-86
2022/09/04 08:48:54;;;;;;;;;;;;;;;18.37;72.58;98387.31;5016847;28;19921;-83
2022/09/04 08:51:59;;;;;;;;;;;;;;;18.41;72.34;98380.78;5008574;28;19980;-77
2022/09/04 08:54:56;;;;;;;;;;;;;;;18.63;71.84;98389.59;5007454;28;19978;-83
2022/09/04 08:57:43;;;;;;;;;;;;;;;18.84;69.58;98396.50;5002306;28;20004;-81
2022/09/04 09:00:14;;;;;;;;;;;;;;;18.95;70.17;98390.47;5002397;28;19921;-79
2022/09/04 09:03:02;;;;;;;;;;;;;;;18.95;69.64;98384.94;4992804;28;19948;-80
2022/09/04 09:05:42;;;;;;;;;;;;;;;18.71;69.80;98391.44;5011229;28;20459;-84
2022/09/04 09:08:55;;;;;;;;;;;;;;;19.11;69.25;98389.31;4995442;28;20392;-80
2022/09/04 09:14:34;;;;;;;;;;;;;;;19.21;68.88;98387.97;4993901;28;19929;-79
2022/09/04 09:17:11;;;;;;;;;;;;;;;19.30;69.19;98391.34;5007219;28;20080;-80
2022/09/04 09:19:45;;;;;;;;;;;;;;;19.37;68.39;98393.47;5003471;28;19976;-80
2022/09/04 09:22:44;;;;;;;;;;;;;;;19.16;68.63;98391.00;5006416;28;20008;-80
2022/09/04 09:25:18;;;;;;;;;;;;;;;19.09;68.80;98388.06;4987963;28;19983;-80
2022/09/04 09:28:05;;;;;;;;;;;;;;;19.38;68.12;98393.09;5007748;28;19928;-80
2022/09/04 09:30:35;;;;;;;;;;;;;;;19.60;67.15;98393.63;5003246;28;19960;-79
2022/09/04 09:33:30;;;;;;;;;;;;;;;19.61;66.61;98393.28;4988987;28;19922;-80
2022/09/04 09:36:05;;;;;;;;;;;;;;;19.74;65.71;98395.91;5005218;28;20020;-84
2022/09/04 09:38:38;;;;;;;;;;;;;;;19.90;66.08;98396.66;4988224;28;19922;-79
2022/09/04 09:41:11;;;;;;;;;;;;;;;19.71;64.45;98397.44;5022737;28;19925;-86
2022/09/04 09:43:45;;;;;;;;;;;;;;;19.87;63.83;98391.88;5017215;28;19925;-86
2022/09/04 09:46:19;;;;;;;;;;;;;;;20.16;63.46;98393.28;4995977;28;19927;-86
2022/09/04 09:49:01;;;;;;;;;;;;;;;20.04;63.64;98391.47;5011696;28;19929;-85
2022/09/04 09:51:43;;;;;;;;;;;;;;;20.14;63.17;98390.88;5004715;28;19925;-83
2022/09/04 09:54:41;;;;;;;;;;;;;;;20.24;62.93;98395.03;5011223;28;19929;-83
2022/09/04 09:57:23;;;;;;;;;;;;;;;20.38;62.40;98388.97;4934846;29;20055;-83
2022/09/04 10:00:20;;;;;;;;;;;;;;;20.30;62.55;98393.56;5003816;28;19921;-82
2022/09/04 10:03:09;;;;;;;;;;;;;;;20.44;61.85;98389.47;5007008;28;19922;-81
2022/09/04 10:05:46;;;;;;;;;;;;;;;20.28;61.48;98392.31;5008615;28;19932;-82
2022/09/04 10:08:22;;;;;;;;;;;;;;;20.31;62.06;98386.09;5008337;28;19991;-85
2022/09/04 10:11:22;;;;;;;;;;;;;;;20.54;59.98;98380.63;5007402;28;19931;-85
2022/09/04 10:13:57;;;;;;;;;;;;;;;20.60;59.62;98374.44;4999506;28;20074;-86
2022/09/04 10:16:50;;;;;;;;;;;;;;;20.67;60.15;98379.31;5008222;28;19921;-85
2022/09/04 10:19:57;;;;;;;;;;;;;;;20.58;60.79;98381.50;4936610;28;19929;-85
2022/09/04 10:22:30;;;;;;;;;;;;;;;20.49;60.70;98383.69;5005728;28;20323;-80
2022/09/04 10:25:16;;;;;;;;;;;;;;;20.41;61.14;98383.53;5001655;28;19949;-77
2022/09/04 10:27:48;;;;;;;;;;;;;;;20.53;60.53;98382.59;5007665;28;20395;-79
2022/09/04 10:30:16;;;;;;;;;;;;;;;20.60;60.89;98384.69;5000598;28;19932;-76
2022/09/04 10:32:48;;;;;;;;;;;;;;;20.71;60.24;98380.16;5005829;28;19921;-79
2022/09/04 10:35:18;;;;;;;;;;;;;;;20.75;60.58;98381.03;4991377;28;19929;-79
2022/09/04 10:37:58;;;;;;;;;;;;;;;20.78;60.99;98376.75;5002221;28;19928;-78
2022/09/04 10:40:35;;;;;;;;;;;;;;;20.87;60.42;98382.81;4999972;28;20034;-78
2022/09/04 10:43:22;;;;;;;;;;;;;;;21.07;59.30;98375.25;4993002;28;19930;-79
2022/09/04 10:45:54;;;;;;;;;;;;;;;21.05;59.88;98378.41;5018860;28;19926;-79
2022/09/04 10:49:14;;;;;;;;;;;;;;;20.93;59.21;98382.16;5006986;28;20307;-78
2022/09/04 10:52:05;;;;;;;;;;;;;;;20.78;59.72;98376.75;5006003;28;19929;-79
2022/09/04 10:54:43;;;;;;;;;;;;;;;20.65;59.63;98373.34;4952590;28;19922;-80
2022/09/04 10:57:23;;;;;;;;;;;;;;;20.61;59.75;98372.47;5006661;28;19992;-80
2022/09/04 10:59:55;;;;;;;;;;;;;;;20.50;59.96;98369.53;5007113;28;19976;-80
2022/09/04 11:02:48;;;;;;;;;;;;;;;20.43;60.33;98372.13;5001836;28;19922;-80
2022/09/04 11:05:25;;;;;;;;;;;;;;;20.32;60.56;98363.63;4989745;28;20297;-79
2022/09/04 11:08:12;;;;;;;;;;;;;;;20.58;59.13;98364.94;5004772;28;19925;-79
2022/09/04 11:10:44;;;;;;;;;;;;;;;20.78;59.41;98363.75;5006689;28;20340;-78
2022/09/04 11:13:48;;;;;;;;;;;;;;;20.99;58.97;98373.56;5005762;28;19925;-79
2022/09/04 11:16:25;;;;;;;;;;;;;;;21.15;57.50;98365.94;5002496;28;19929;-81
2022/09/04 11:19:04;;;;;;;;;;;;;;;21.27;57.51;98365.72;5004208;28;20662;-80
2022/09/04 11:22:07;;;;;;;;;;;;;;;21.26;56.94;98366.91;5001303;28;21107;-79
2022/09/04 11:25:03;;;;;;;;;;;;;;;21.31;56.19;98352.81;4930325;29;19934;-80
2022/09/04 11:28:01;;;;;;;;;;;;;;;21.34;55.92;98354.00;4930995;29;20109;-80
2022/09/04 11:30:32;;;;;;;;;;;;;;;21.38;55.98;98355.66;4976823;28;19926;-79
2022/09/04 11:33:15;;;;;;;;;;;;;;;21.44;55.66;98362.47;4994743;28;20017;-79
2022/09/04 11:35:54;;;;;;;;;;;;;;;21.51;55.43;98363.72;5008398;28;19929;-79
2022/09/04 11:38:42;;;;;;;;;;;;;;;21.62;54.33;98361.91;4997749;28;19932;-79
2022/09/04 11:45:08;;;;;;;;;;;;;;;21.75;54.08;98363.31;5003040;28;19952;-79
2022/09/04 11:47:49;;;;;;;;;;;;;;;21.72;53.91;98366.81;4997668;28;20047;-79
2022/09/04 11:50:21;;;;;;;;;;;;;;;21.69;54.22;98367.56;4999342;28;20380;-79
2022/09/04 11:52:55;;;;;;;;;;;;;;;21.71;54.07;98376.28;5006412;28;19930;-79
2022/09/04 11:55:44;;;;;;;;;;;;;;;21.65;53.74;98367.50;5005780;28;19949;-79
2022/09/04 11:58:22;;;;;;;;;;;;;;;21.77;53.01;98368.44;4994684;28;19966;-82
2022/09/04 12:00:58;;;;;;;;;;;;;;;21.87;52.52;98363.06;4997031;28;19926;-83
2022/09/04 12:03:41;;;;;;;;;;;;;;;21.95;52.33;98353.69;5003940;28;19969;-82
2022/09/04 12:06:12;;;;;;;;;;;;;;;21.96;51.92;98363.59;4999538;28;20435;-82
2022/09/04 12:08:53;;;;;;;;;;;;;;;22.02;51.93;98357.72;4991004;28;19932;-84
2022/09/04 12:14:32;;;;;;;;;;;;;;;22.03;52.44;98353.78;4989257;28;20020;-81
2022/09/04 12:17:26;;;;;;;;;;;;;;;22.03;52.54;98360.09;4987334;28;20692;-83
2022/09/04 12:20:29;;;;;;;;;;;;;;;22.03;52.67;98360.09;5004876;28;19932;-83
2022/09/04 12:23:16;;;;;;;;;;;;;;;22.05;52.31;98365.25;5009076;28;19929;-82
2022/09/04 12:26:09;;;;;;;;;;;;;;;21.98;50.85;98358.47;5005722;28;20400;-83
2022/09/04 12:29:00;;;;;;;;;;;;;;;21.95;51.03;98359.22;5003212;28;19925;-84
2022/09/04 12:31:35;;;;;;;;;;;;;;;21.89;48.86;98355.19;4993732;28;19932;-84
2022/09/04 12:34:22;;;;;;;;;;;;;;;21.88;49.25;98359.13;5002458;28;19997;-82
2022/09/04 12:37:10;;;;;;;;;;;;;;;21.92;49.38;98353.66;4992993;28;19925;-83
2022/09/04 12:39:54;;;;;;;;;;;;;;;21.95;49.55;98361.19;5004286;28;19926;-83
2022/09/04 12:42:23;;;;;;;;;;;;;;;22.06;50.24;98353.84;4986877;28;19926;-87
2022/09/04 12:44:56;;;;;;;;;;;;;;;22.05;50.31;98352.25;5008360;28;20357;-84
2022/09/04 12:47:56;;;;;;;;;;;;;;;22.05;51.26;98363.31;4997629;28;20097;-85
2022/09/04 12:50:30;;;;;;;;;;;;;;;22.10;50.62;98362.97;5003398;28;20036;-85
2022/09/04 12:53:13;;;;;;;;;;;;;;;22.18;49.83;98355.56;5004177;28;19934;-84
2022/09/04 12:55:45;;;;;;;;;;;;;;;22.26;49.29;98356.44;5005459;28;20365;-83
2022/09/04 12:58:20;;;;;;;;;;;;;;;22.23;49.68;98353.28;4997527;28;19987;-84
2022/09/04 13:00:54;;;;;;;;;;;;;;;22.33;48.49;98357.34;5001299;28;19932;-83
2022/09/04 13:03:25;;;;;;;;;;;;;;;22.37;49.53;98354.59;4990664;28;20498;-85
2022/09/04 13:06:02;;;;;;;;;;;;;;;22.41;49.12;98353.47;5004589;28;19952;-83
2022/09/04 13:08:34;;;;;;;;;;;;;;;22.55;49.37;98363.09;5006753;28;19926;-82
2022/09/04 13:11:10;;;;;;;;;;;;;;;22.51;50.54;98349.22;5005269;28;19932;-82
2022/09/04 13:13:41;;;;;;;;;;;;;;;22.56;49.23;98353.63;4998718;28;19926;-81
2022/09/04 13:16:12;;;;;;;;;;;;;;;22.61;49.04;98354.06;5008215;28;19996;-81
2022/09/04 13:18:45;;;;;;;;;;;;;;;22.64;48.84;98349.75;5005835;28;19926;-83
2022/09/04 13:21:16;;;;;;;;;;;;;;;22.66;49.24;98353.72;5000665;28;19926;-80
2022/09/04 13:23:51;;;;;;;;;;;;;;;22.68;48.20;98345.03;5005438;28;19930;-81
2022/09/04 13:26:26;;;;;;;;;;;;;;;22.79;48.26;98354.22;4995102;28;20261;-81
2022/09/04 13:28:59;;;;;;;;;;;;;;;22.84;48.63;98355.84;5002237;28;19953;-82
2022/09/04 13:31:32;;;;;;;;;;;;;;;22.84;48.73;98351.13;4991458;28;19933;-81
2022/09/04 13:34:04;;;;;;;;;;;;;;;22.78;49.29;98358.19;5008756;28;19930;-81
2022/09/04 13:36:34;;;;;;;;;;;;;;;22.74;49.25;98354.56;5013149;28;19925;-91
2022/09/04 13:39:09;;;;;;;;;;;;;;;22.64;48.29;98352.53;5011636;28;19968;-90
2022/09/04 13:48:01;;;;;;;;;;;;;;;22.87;47.93;98349.56;5006923;28;19925;-90
2022/09/04 13:50:55;;;;;;;;;;;;;;;22.92;47.59;98352.81;5009500;28;19932;-90
2022/09/04 13:53:24;;;;;;;;;;;;;;;22.93;47.19;98361.91;5006064;28;19933;-90
2022/09/04 13:55:56;;;;;;;;;;;;;;;22.85;46.86;98354.69;5014627;28;19931;-90
2022/09/04 13:58:28;;;;;;;;;;;;;;;22.99;46.91;98349.31;5015818;28;19926;-88
2022/09/04 14:00:58;;;;;;;;;;;;;;;23.06;48.25;98348.56;5009107;28;19936;-84
2022/09/04 14:06:30;;;;;;;;;;;;;;;23.16;48.67;98347.84;5002464;28;19933;-91
2022/09/04 14:09:02;;;;;;;;;;;;;;;23.20;47.34;98346.69;5025921;28;19926;-86
2022/09/04 14:11:44;;;;;;;;;;;;;;;23.28;46.44;98353.13;5013645;28;19934;-92
2022/09/04 14:14:36;;;;;;;;;;;;;;;23.35;47.79;98355.13;5025568;28;19934;-86
2022/09/04 14:17:05;;;;;;;;;;;;;;;23.34;47.36;98354.34;5006891;28;20388;-84
2022/09/04 14:19:42;;;;;;;;;;;;;;;23.33;48.00;98358.28;5009118;28;19926;-82
2022/09/04 14:22:13;;;;;;;;;;;;;;;23.18;47.84;98359.38;5013129;28;20012;-84
2022/09/04 14:24:44;;;;;;;;;;;;;;;23.02;48.80;98354.09;5009957;28;19953;-86
2022/09/04 14:30:13;;;;;;;;;;;;;;;22.75;48.46;98357.00;5010517;28;19964;-84
2022/09/04 14:32:45;;;;;;;;;;;;;;;22.63;48.83;98359.22;5006333;28;19945;-86
2022/09/04 14:35:18;;;;;;;;;;;;;;;22.61;47.95;98356.84;5012292;28;19926;-88
2022/09/04 14:38:05;;;;;;;;;;;;;;;22.52;49.44;98348.03;5006697;28;19932;-84